EST,Max TemperatureF,Mean TemperatureF,Min TemperatureF,Max Dew PointF,MeanDew PointF,Min DewpointF,Max Humidity, Mean Humidity, Min Humidity, Max Sea Level PressureIn, Mean Sea Level PressureIn, Min Sea Level PressureIn, Max VisibilityMiles, Mean VisibilityMiles, Min VisibilityMiles, Max Wind SpeedMPH, Mean Wind SpeedMPH, Max Gust SpeedMPH,PrecipitationIn, CloudCover, Events, WindDirDegrees
2012-11-1,40,38,36,40,38,35,100,97,88,29.75,29.68,29.61,10,6,2,15,9,23,0.03,8,,258
2012-11-2,53,44,35,48,33,29,97,84,70,30.03,29.86,29.73,10,10,5,14,7,22,0.02,8,,282
2012-11-3,39,36,34,38,34,29,100,88,73,30.12,30.08,30.00,10,10,7,9,5,16,0.04,8,,289
2012-11-4,38,36,33,35,31,28,100,84,68,30.13,30.11,30.10,10,10,7,8,3,,0.00,8,,316
2012-11-5,36,34,32,35,29,25,100,81,68,30.17,30.14,30.10,10,10,7,8,3,,0.00,8,,357
2012-11-6,44,36,28,28,25,24,87,70,48,30.15,30.04,29.94,10,10,10,8,3,,0.00,3,,65
2012-11-7,43,34,25,28,25,23,90,72,51,30.07,29.99,29.93,10,10,10,12,7,,0.00,0,,53
2012-11-8,45,36,27,32,29,24,100,80,56,30.18,30.13,30.07,10,9,2,13,3,17,0.00,3,,324
2012-11-9,51,39,27,35,33,27,100,78,53,30.23,30.17,30.13,10,6,2,8,1,,0.00,3,,230
2012-11-10,61,52,42,45,41,34,100,71,46,30.22,30.18,30.13,10,8,2,8,3,,0.12,3,,156
2012-11-11,67,58,49,37,34,30,56,40,28,30.30,30.21,30.12,10,10,10,12,4,21,0.00,0,,168
2012-11-12,63,48,33,55,41,25,100,69,33,30.32,30.12,29.98,10,9,3,17,9,26,0.40,5,,210
2012-11-13,34,32,30,30,25,22,89,73,63,30.52,30.42,30.33,10,10,10,15,7,23,0.00,7,,257
2012-11-14,38,33,28,30,26,24,89,76,60,30.56,30.49,30.39,10,10,10,9,2,,0.00,5,,72
2012-11-15,46,36,25,31,26,22,99,72,46,30.38,30.33,30.29,10,10,10,7,2,,0.00,0,,43
2012-11-16,50,40,29,36,31,27,100,79,41,30.50,30.41,30.33,10,9,2,8,2,,0.00,1,,5
2012-11-17,54,40,27,34,30,27,100,74,38,30.60,30.55,30.49,10,7,1,7,3,,0.00,0,,71
2012-11-18,55,42,29,32,29,26,90,69,35,30.53,30.48,30.42,10,9,5,10,6,,0.00,0,,94
2012-11-19,52,40,29,33,30,26,94,72,44,30.42,30.32,30.20,10,10,7,7,4,,0.00,0,,95
2012-11-20,54,44,33,36,33,31,95,73,42,30.20,30.14,30.08,10,10,10,5,0,,0.00,4,,74
2012-11-21,57,45,33,37,30,20,100,66,23,30.23,30.19,30.13,10,10,10,5,0,,0.00,1,,280
2012-11-22,59,46,32,37,33,28,93,64,42,30.21,30.13,29.97,10,10,7,9,2,,0.00,0,,176
2012-11-23,52,41,30,46,32,23,89,67,42,29.97,29.87,29.79,10,10,2,26,10,39,0.00,6,,235
2012-11-24,31,30,29,26,23,19,84,75,64,30.06,30.02,29.95,10,8,2,21,13,26,0.00,8,,263
2012-11-25,38,32,26,26,22,19,88,71,52,30.02,29.93,29.83,10,10,2,14,8,20,0.00,5,,234
2012-11-26,40,34,27,29,26,24,99,74,53,30.22,30.12,29.97,10,9,4,8,3,,0.00,5,,260
2012-11-27,34,30,27,29,24,20,96,75,60,30.30,30.25,30.21,10,9,3,8,3,,0.00,8,,322
2012-11-28,38,32,25,24,22,20,81,70,52,30.32,30.27,30.23,10,10,10,15,5,18,0.00,5,,245
2012-11-29,44,35,26,25,22,16,90,66,33,30.34,30.29,30.23,10,10,7,12,3,18,0.00,0,,222
2012-11-30,49,38,27,31,27,22,80,64,44,30.26,30.21,30.15,10,10,10,7,2,,0.00,4,,130